Wednesday, January 17, 2018, 7:14 PM EST
Back to Local

KVAY, Mt Holly South Jersey Rgnl

Location: Medford, NJ, United States Lat: 39.933
Local Time: 7:14 PM EST ( 0:14 GMT) Lon: -74.833
Time Zone: US/Eastern Elev: 52 ft

Show me the last for .
Show Decoded

2018-01-17 18:54 METAR KVAY 172354Z AUTO VRB06KT 10SM CLR M04/M09 A3024 RMK AO2 SLP239 T10391094
                 11022 21039 53002 =
2018-01-17 17:54 METAR KVAY 172254Z AUTO 32006KT 10SM CLR M04/M09 A3023 RMK AO2 SLP238 T10391089
                 =
2018-01-17 16:54 METAR KVAY 172154Z AUTO 30007KT 10SM CLR M04/M09 A3023 RMK AO2 SLP238 T10391089
                 =
2018-01-17 15:54 METAR KVAY 172054Z AUTO VRB04KT 10SM BKN110 M03/M07 A3023 RMK AO2 SLP237
                 T10331072 58008 =
2018-01-17 14:54 METAR KVAY 171954Z AUTO VRB05KT 10SM FEW110 M03/M06 A3024 RMK AO2 SLP241
                 T10281061 =
2018-01-17 14:27 METAR KVAY 171927Z AUTO 30007KT 10SM SCT016 SCT120 M03/M06 A3024 RMK AO2
                 T10281056 =
2018-01-17 13:54 METAR KVAY 171854Z AUTO VRB05KT 10SM BKN015 OVC110 M03/M05 A3025 RMK AO2 SLP243
                 T10281050 =
2018-01-17 12:54 METAR KVAY 171754Z AUTO 32006G15KT 10SM BKN015 M02/M04 A3025 RMK AO2 SLP245
                 60005 T10221044 10000 21022 58020 =
2018-01-17 12:38 METAR KVAY 171738Z AUTO 30009G17KT 10SM OVC015 M02/M04 A3026 RMK AO2 T10221044 =
2018-01-17 12:08 METAR KVAY 171708Z AUTO 31008KT 10SM BKN013 OVC100 M02/M03 A3028 RMK AO2
                 T10171033 =
2018-01-17 11:54 METAR KVAY 171654Z AUTO 30007G15KT 10SM SCT013 BKN100 M02/M04 A3029 RMK AO2
                 SNE19 SLP256 P0001 T10171039 =
2018-01-17 11:51 METAR KVAY 171651Z AUTO 31008G15KT 10SM SCT013 BKN100 M02/M04 A3029 RMK AO2
                 SNE19 P0001 =
2018-01-17 11:15 METAR KVAY 171615Z AUTO 29006G14KT 3SM -SN BR BKN010 BKN013 OVC024 M02/M03 A3031
                 RMK AO2 P0001 T10171033 =
2018-01-17 11:05 METAR KVAY 171605Z AUTO 29007KT 1 1/2SM -SN BR BKN010 OVC022 M02/M03 A3031 RMK
                 AO2 P0001 T10171028 =
2018-01-17 10:54 METAR KVAY 171554Z AUTO 29006KT 1 1/4SM -SN BR BKN007 OVC023 M02/M03 A3031 RMK
                 AO2 SLP265 P0001 T10171028 =
2018-01-17 10:40 METAR KVAY 171540Z AUTO 30006G15KT 1 1/4SM -SN BR SCT005 BKN009 OVC021 M02/M03
                 A3031 RMK AO2 P0001 T10171028 =
2018-01-17 10:31 METAR KVAY 171531Z AUTO 29008KT 3/4SM -SN BR BKN006 OVC017 M01/M02 A3032 RMK AO2
                 P0001 T10111017 =
2018-01-17 10:15 METAR KVAY 171515Z AUTO VRB04KT 3/4SM -SN BR SCT008 OVC017 M01/M01 A3031 RMK AO2
                 P0001 T10111011 =
2018-01-17 10:08 METAR KVAY 171508Z AUTO 31007KT 3/4SM -SN BR FEW008 BKN013 OVC019 M01/M02 A3031
                 RMK AO2 P0001 T10111017 =
2018-01-17 09:54 METAR KVAY 171454Z AUTO 30006KT 3/4SM -SN BR BKN008 BKN012 OVC019 M01/M01 A3031
                 RMK AO2 SLP266 P0001 60003 T10111011 53006 =
2018-01-17 09:50 METAR KVAY 171450Z AUTO VRB05KT 3/4SM -SN BR SCT008 BKN013 OVC019 M01/M01 A3031
                 RMK AO2 P0001 =
2018-01-17 09:44 METAR KVAY 171444Z AUTO VRB06KT 1SM -SN BR SCT008 SCT013 OVC018 M01/M01 A3032
                 RMK AO2 P0001 T10061011 =
2018-01-17 09:26 METAR KVAY 171426Z AUTO 31006KT 3/4SM -SN BR FEW009 OVC019 M01/M02 A3031 RMK AO2
                 P0001 T10111017 =
2018-01-17 09:04 METAR KVAY 171404Z AUTO 32009G15KT 290V350 1SM -SN BR SCT009 BKN015 OVC021
                 M01/M01 A3031 RMK AO2 P0001 T10061011 =
2018-01-17 08:54 METAR KVAY 171354Z AUTO 31005KT 1 1/4SM -SN BR SCT007 BKN013 OVC021 M01/M01
                 A3030 RMK AO2 SLP262 P0001 T10061011 =
2018-01-17 08:52 METAR KVAY 171352Z AUTO 32007KT 1 1/4SM -SN BR SCT007 BKN013 OVC021 M01/M01
                 A3030 RMK AO2 P0001 =
2018-01-17 08:44 METAR KVAY 171344Z AUTO 31008KT 1SM -SN BR BKN007 BKN015 OVC019 M01/M01 A3030
                 RMK AO2 P0001 T10061011 =
2018-01-17 08:32 METAR KVAY 171332Z AUTO 30008KT 3/4SM -SN BR OVC007 M01/M01 A3030 RMK AO2 CIG
                 004V011 P0001 T10061006 =
2018-01-17 08:19 METAR KVAY 171319Z AUTO 30007KT 1SM -SN BR OVC007 00/00 A3030 RMK AO2 P0001
                 T00000000 =
2018-01-17 08:09 METAR KVAY 171309Z AUTO 30004KT 3/4SM -SN BR OVC007 00/00 A3030 RMK AO2 P0000
                 T00000000 =
2018-01-17 07:54 METAR KVAY 171254Z AUTO 31005KT 3/4SM -SN BR OVC005 00/00 A3030 RMK AO2 SLP260
                 P0001 T00000000 =
2018-01-17 07:40 METAR KVAY 171240Z AUTO 31006KT 3/4SM -SN BR BKN005 OVC010 00/00 A3029 RMK AO2
                 CIG 004V007 P0001 T00000000 =
2018-01-17 07:33 METAR KVAY 171233Z AUTO 31006KT 1SM -SN BR OVC005 00/00 A3029 RMK AO2 CIG
                 003V007 P0000 T00000000 =
2018-01-17 07:25 METAR KVAY 171225Z AUTO 31005KT 1 1/4SM -SN BR OVC004 00/00 A3029 RMK AO2 CIG
                 003V007 P0000 T00000000 =
2018-01-17 07:11 METAR KVAY 171211Z AUTO 31004KT 1SM -SN BR OVC004 00/00 A3029 RMK AO2 P0000
                 T00000000 =
2018-01-17 06:54 METAR KVAY 171154Z AUTO VRB05KT 1 1/2SM -SN BR OVC004 00/00 A3028 RMK AO2 SLP255
                 P0002 60016 70016 T00000000 10022 20000 53005 =
2018-01-17 06:44 METAR KVAY 171144Z AUTO 31003KT 1 1/4SM -SN BR OVC004 00/00 A3028 RMK AO2 P0001
                 T00000000 =
2018-01-17 06:32 METAR KVAY 171132Z AUTO 30004KT 1SM -SN BR OVC004 00/00 A3028 RMK AO2 P0001
                 T00000000 =
2018-01-17 06:01 METAR KVAY 171101Z AUTO VRB04KT 1 1/2SM -SN BR BKN004 OVC021 01/01 A3028 RMK AO2
                 P0000 T00060006 =
2018-01-17 05:54 METAR KVAY 171054Z AUTO 31004KT 1 3/4SM -SN BR BKN005 OVC019 01/01 A3028 RMK AO2
                 RAE13UPB23E26SNB13E23B26 SLP254 P0002 T00060006 =
2018-01-17 05:48 METAR KVAY 171048Z AUTO 31004KT 1 3/4SM -SN BR BKN005 OVC019 01/01 A3028 RMK AO2
                 RAE13UPB23E26SNB13E23B26 P0002 =
2018-01-17 05:39 METAR KVAY 171039Z AUTO 33004KT 2 1/2SM -SN BR BKN005 OVC019 01/01 A3027 RMK AO2
                 RAE13UPB23E26SNB13E23B26 P0001 T00060006 =
2018-01-17 04:54 METAR KVAY 170954Z AUTO 32005KT 3SM -RA BR BKN005 OVC014 01/01 A3027 RMK AO2
                 SLP250 P0005 T00110011 =
2018-01-17 04:39 METAR KVAY 170939Z AUTO VRB03KT 3SM -RA BR BKN005 BKN010 OVC014 01/01 A3026 RMK
                 AO2 P0004 T00110011 =
2018-01-17 04:29 METAR KVAY 170929Z AUTO 33004KT 3SM -RA BR SCT004 OVC012 01/01 A3026 RMK AO2
                 P0003 T00110011 =
2018-01-17 04:11 METAR KVAY 170911Z AUTO 32004KT 2 1/2SM -RA BR OVC004 01/01 A3027 RMK AO2 P0002
                 T00110011 =
2018-01-17 03:54 METAR KVAY 170854Z AUTO 34003KT 3SM -RA BR OVC006 01/01 A3027 RMK AO2 UPB40E42
                 CIG 004V009 SLP249 P0004 60007 T00110011 58009 =
2018-01-17 02:54 METAR KVAY 170754Z AUTO 31005KT 4SM -RA BR OVC006 02/01 A3028 RMK AO2 RAB26
                 SLP253 P0003 T00170011 =
2018-01-17 01:54 METAR KVAY 170654Z AUTO 33004KT 10SM OVC006 02/01 A3028 RMK AO2 SLP256 T00220006
                 =
2018-01-17 00:54 METAR KVAY 170554Z AUTO 00000KT 10SM OVC005 01/00 A3029 RMK AO2 SLP259 T00110000
                 10011 20000 58017 =
2018-01-17 00:39 METAR KVAY 170539Z AUTO 00000KT 10SM OVC005 01/00 A3030 RMK AO2 T00110000 =
2018-01-16 23:54 METAR KVAY 170454Z AUTO 00000KT 10SM BKN009 BKN037 BKN045 01/M01 A3031 RMK AO2
                 SLP265 T00061006 400781044 =
2018-01-16 23:47 METAR KVAY 170447Z AUTO 00000KT 10SM SCT008 SCT033 BKN045 01/M01 A3032 RMK AO2
                 T00061006 =
2018-01-16 22:54 METAR KVAY 170354Z AUTO 00000KT 10SM SCT044 00/M01 A3033 RMK AO2 SLP270
                 T00001011 =
2018-01-16 21:54 METAR KVAY 170254Z AUTO 00000KT 10SM BKN033 OVC042 01/M01 A3034 RMK AO2 SLP276
                 T00111006 56015 =
2018-01-16 20:54 METAR KVAY 170154Z AUTO 00000KT 10SM FEW026 BKN040 01/M01 A3036 RMK AO2 SLP281
                 T00111011 =
2018-01-16 19:54 METAR KVAY 170054Z AUTO 00000KT 10SM OVC037 01/M01 A3037 RMK AO2 SLP284
                 T00061011 =

Support USWX by starting your Amazon purchase here.